sensor_id;sensor_type;location;lat;lon;timestamp;P1;durP1;ratioP1;P2;durP2;ratioP2
64938;SDS011;51453;47.738;7.420;2023-07-29T00:00:39;1.60;;;1.50;;
64938;SDS011;51453;47.738;7.420;2023-07-29T00:03:05;2.67;;;1.50;;
64938;SDS011;51453;47.738;7.420;2023-07-29T00:05:31;3.35;;;1.67;;
64938;SDS011;51453;47.738;7.420;2023-07-29T00:07:56;2.72;;;1.65;;
64938;SDS011;51453;47.738;7.420;2023-07-29T00:10:22;2.30;;;1.65;;
64938;SDS011;51453;47.738;7.420;2023-07-29T00:12:48;2.17;;;1.80;;
64938;SDS011;51453;47.738;7.420;2023-07-29T00:15:13;1.73;;;1.63;;
64938;SDS011;51453;47.738;7.420;2023-07-29T00:17:39;1.80;;;1.70;;
64938;SDS011;51453;47.738;7.420;2023-07-29T00:20:05;2.00;;;1.52;;
64938;SDS011;51453;47.738;7.420;2023-07-29T00:22:31;2.60;;;1.50;;
64938;SDS011;51453;47.738;7.420;2023-07-29T00:24:57;2.13;;;1.60;;
64938;SDS011;51453;47.738;7.420;2023-07-29T00:27:24;2.10;;;1.90;;
64938;SDS011;51453;47.738;7.420;2023-07-29T00:29:50;3.00;;;2.08;;
64938;SDS011;51453;47.738;7.420;2023-07-29T00:32:15;3.22;;;1.90;;
64938;SDS011;51453;47.738;7.420;2023-07-29T00:34:41;3.47;;;1.92;;
64938;SDS011;51453;47.738;7.420;2023-07-29T00:37:07;2.63;;;1.90;;
64938;SDS011;51453;47.738;7.420;2023-07-29T00:39:32;4.65;;;2.20;;
64938;SDS011;51453;47.738;7.420;2023-07-29T00:41:58;1.70;;;1.60;;
64938;SDS011;51453;47.738;7.420;2023-07-29T00:44:24;4.00;;;2.08;;
64938;SDS011;51453;47.738;7.420;2023-07-29T00:46:50;3.75;;;1.90;;
64938;SDS011;51453;47.738;7.420;2023-07-29T00:49:18;2.95;;;2.10;;
64938;SDS011;51453;47.738;7.420;2023-07-29T00:51:46;2.13;;;2.00;;
64938;SDS011;51453;47.738;7.420;2023-07-29T00:54:13;2.20;;;2.00;;
64938;SDS011;51453;47.738;7.420;2023-07-29T00:56:39;2.08;;;1.77;;
64938;SDS011;51453;47.738;7.420;2023-07-29T00:59:05;2.10;;;1.50;;
64938;SDS011;51453;47.738;7.420;2023-07-29T01:01:31;2.05;;;1.85;;
64938;SDS011;51453;47.738;7.420;2023-07-29T01:03:57;3.22;;;2.00;;
64938;SDS011;51453;47.738;7.420;2023-07-29T01:06:30;4.70;;;1.98;;
64938;SDS011;51453;47.738;7.420;2023-07-29T01:17:09;2.45;;;1.77;;
64938;SDS011;51453;47.738;7.420;2023-07-29T01:22:25;1.77;;;1.67;;
64938;SDS011;51453;47.738;7.420;2023-07-29T01:24:51;1.90;;;1.70;;
64938;SDS011;51453;47.738;7.420;2023-07-29T01:27:17;4.90;;;2.00;;
64938;SDS011;51453;47.738;7.420;2023-07-29T01:29:43;2.13;;;2.00;;
64938;SDS011;51453;47.738;7.420;2023-07-29T01:32:14;2.25;;;1.90;;
64938;SDS011;51453;47.738;7.420;2023-07-29T01:35:08;1.75;;;1.63;;
64938;SDS011;51453;47.738;7.420;2023-07-29T01:37:49;3.45;;;1.90;;
64938;SDS011;51453;47.738;7.420;2023-07-29T01:40:19;3.45;;;1.85;;
64938;SDS011;51453;47.738;7.420;2023-07-29T01:42:48;2.08;;;1.73;;
64938;SDS011;51453;47.738;7.420;2023-07-29T01:45:14;1.90;;;1.75;;
64938;SDS011;51453;47.738;7.420;2023-07-29T01:47:40;2.50;;;2.10;;
64938;SDS011;51453;47.738;7.420;2023-07-29T01:50:06;2.08;;;1.80;;
64938;SDS011;51453;47.738;7.420;2023-07-29T01:52:33;2.67;;;2.00;;
64938;SDS011;51453;47.738;7.420;2023-07-29T01:54:58;1.95;;;1.77;;
64938;SDS011;51453;47.738;7.420;2023-07-29T01:57:24;2.03;;;1.83;;
64938;SDS011;51453;47.738;7.420;2023-07-29T01:59:49;3.65;;;2.20;;
64938;SDS011;51453;47.738;7.420;2023-07-29T02:02:15;5.88;;;2.17;;
64938;SDS011;51453;47.738;7.420;2023-07-29T02:04:41;3.13;;;2.40;;
64938;SDS011;51453;47.738;7.420;2023-07-29T02:07:06;2.47;;;2.28;;
64938;SDS011;51453;47.738;7.420;2023-07-29T02:09:32;4.55;;;2.40;;
64938;SDS011;51453;47.738;7.420;2023-07-29T02:11:58;3.65;;;2.28;;
64938;SDS011;51453;47.738;7.420;2023-07-29T02:14:23;4.03;;;2.13;;
64938;SDS011;51453;47.738;7.420;2023-07-29T02:16:49;2.28;;;2.08;;
64938;SDS011;51453;47.738;7.420;2023-07-29T02:19:15;3.85;;;2.17;;
64938;SDS011;51453;47.738;7.420;2023-07-29T02:21:41;2.60;;;2.40;;
64938;SDS011;51453;47.738;7.420;2023-07-29T02:24:06;2.85;;;2.22;;
64938;SDS011;51453;47.738;7.420;2023-07-29T02:26:32;2.38;;;2.17;;
64938;SDS011;51453;47.738;7.420;2023-07-29T02:28:57;3.13;;;2.45;;
64938;SDS011;51453;47.738;7.420;2023-07-29T02:31:24;3.35;;;2.20;;
64938;SDS011;51453;47.738;7.420;2023-07-29T02:33:50;3.80;;;2.40;;
64938;SDS011;51453;47.738;7.420;2023-07-29T02:36:17;2.95;;;2.40;;
64938;SDS011;51453;47.738;7.420;2023-07-29T02:38:43;5.78;;;2.42;;
64938;SDS011;51453;47.738;7.420;2023-07-29T02:41:09;3.25;;;2.25;;
64938;SDS011;51453;47.738;7.420;2023-07-29T02:43:37;2.60;;;2.40;;
64938;SDS011;51453;47.738;7.420;2023-07-29T02:46:03;4.00;;;2.45;;
64938;SDS011;51453;47.738;7.420;2023-07-29T02:48:29;2.35;;;2.17;;
64938;SDS011;51453;47.738;7.420;2023-07-29T02:50:55;3.70;;;2.38;;
64938;SDS011;51453;47.738;7.420;2023-07-29T02:53:21;2.72;;;2.15;;
64938;SDS011;51453;47.738;7.420;2023-07-29T02:55:47;2.63;;;2.17;;
64938;SDS011;51453;47.738;7.420;2023-07-29T02:58:13;3.88;;;2.00;;
64938;SDS011;51453;47.738;7.420;2023-07-29T03:00:39;2.55;;;2.35;;
64938;SDS011;51453;47.738;7.420;2023-07-29T03:03:07;2.30;;;2.10;;
64938;SDS011;51453;47.738;7.420;2023-07-29T03:05:33;3.45;;;2.35;;
64938;SDS011;51453;47.738;7.420;2023-07-29T03:07:59;2.78;;;2.05;;
64938;SDS011;51453;47.738;7.420;2023-07-29T03:10:24;3.53;;;2.05;;
64938;SDS011;51453;47.738;7.420;2023-07-29T03:12:50;2.13;;;1.90;;
64938;SDS011;51453;47.738;7.420;2023-07-29T03:15:18;2.58;;;2.03;;
64938;SDS011;51453;47.738;7.420;2023-07-29T03:17:44;3.83;;;2.13;;
64938;SDS011;51453;47.738;7.420;2023-07-29T03:20:09;2.47;;;2.13;;
64938;SDS011;51453;47.738;7.420;2023-07-29T03:22:35;2.90;;;2.10;;
64938;SDS011;51453;47.738;7.420;2023-07-29T03:25:01;2.95;;;2.58;;
64938;SDS011;51453;47.738;7.420;2023-07-29T03:27:26;2.88;;;2.08;;
64938;SDS011;51453;47.738;7.420;2023-07-29T03:29:52;4.20;;;2.40;;
64938;SDS011;51453;47.738;7.420;2023-07-29T03:32:17;2.45;;;2.25;;
64938;SDS011;51453;47.738;7.420;2023-07-29T03:34:43;4.85;;;2.10;;
64938;SDS011;51453;47.738;7.420;2023-07-29T03:37:09;2.65;;;2.00;;
64938;SDS011;51453;47.738;7.420;2023-07-29T03:39:34;4.13;;;1.90;;
64938;SDS011;51453;47.738;7.420;2023-07-29T03:42:00;2.80;;;2.20;;
64938;SDS011;51453;47.738;7.420;2023-07-29T03:44:25;12.40;;;2.67;;
64938;SDS011;51453;47.738;7.420;2023-07-29T03:46:51;2.13;;;1.90;;
64938;SDS011;51453;47.738;7.420;2023-07-29T03:49:16;2.33;;;2.05;;
64938;SDS011;51453;47.738;7.420;2023-07-29T03:51:42;3.78;;;2.13;;
64938;SDS011;51453;47.738;7.420;2023-07-29T03:54:08;2.78;;;2.13;;
64938;SDS011;51453;47.738;7.420;2023-07-29T03:56:33;3.00;;;1.80;;
64938;SDS011;51453;47.738;7.420;2023-07-29T03:59:04;2.10;;;1.77;;
64938;SDS011;51453;47.738;7.420;2023-07-29T04:01:30;2.42;;;2.00;;
64938;SDS011;51453;47.738;7.420;2023-07-29T04:03:55;2.55;;;2.28;;
64938;SDS011;51453;47.738;7.420;2023-07-29T04:06:21;5.10;;;2.45;;
64938;SDS011;51453;47.738;7.420;2023-07-29T04:08:47;3.38;;;2.30;;
64938;SDS011;51453;47.738;7.420;2023-07-29T04:11:14;3.55;;;2.13;;
64938;SDS011;51453;47.738;7.420;2023-07-29T04:13:39;4.22;;;2.53;;
64938;SDS011;51453;47.738;7.420;2023-07-29T04:16:06;2.78;;;2.15;;
64938;SDS011;51453;47.738;7.420;2023-07-29T04:18:32;4.65;;;2.50;;
64938;SDS011;51453;47.738;7.420;2023-07-29T04:20:57;6.25;;;3.33;;
64938;SDS011;51453;47.738;7.420;2023-07-29T04:23:23;3.17;;;2.13;;
64938;SDS011;51453;47.738;7.420;2023-07-29T04:25:49;3.33;;;2.63;;
64938;SDS011;51453;47.738;7.420;2023-07-29T04:28:15;2.63;;;2.42;;
64938;SDS011;51453;47.738;7.420;2023-07-29T04:30:41;5.40;;;2.42;;
64938;SDS011;51453;47.738;7.420;2023-07-29T04:33:06;2.90;;;2.13;;
64938;SDS011;51453;47.738;7.420;2023-07-29T04:35:32;5.20;;;2.45;;
64938;SDS011;51453;47.738;7.420;2023-07-29T04:37:58;2.83;;;2.15;;
64938;SDS011;51453;47.738;7.420;2023-07-29T04:40:23;2.47;;;1.98;;
64938;SDS011;51453;47.738;7.420;2023-07-29T04:42:49;4.18;;;2.40;;
64938;SDS011;51453;47.738;7.420;2023-07-29T04:45:16;2.70;;;2.22;;
64938;SDS011;51453;47.738;7.420;2023-07-29T04:47:41;2.40;;;2.10;;
64938;SDS011;51453;47.738;7.420;2023-07-29T04:50:07;3.17;;;2.88;;
64938;SDS011;51453;47.738;7.420;2023-07-29T04:52:33;4.50;;;2.28;;
64938;SDS011;51453;47.738;7.420;2023-07-29T04:54:59;2.90;;;2.30;;
64938;SDS011;51453;47.738;7.420;2023-07-29T04:57:24;2.58;;;2.38;;
64938;SDS011;51453;47.738;7.420;2023-07-29T04:59:50;2.50;;;2.30;;
64938;SDS011;51453;47.738;7.420;2023-07-29T05:02:15;2.95;;;2.30;;
64938;SDS011;51453;47.738;7.420;2023-07-29T05:04:41;4.13;;;2.40;;
64938;SDS011;51453;47.738;7.420;2023-07-29T05:07:07;7.13;;;2.20;;
64938;SDS011;51453;47.738;7.420;2023-07-29T05:09:32;3.45;;;2.47;;
64938;SDS011;51453;47.738;7.420;2023-07-29T05:11:58;3.00;;;1.90;;
64938;SDS011;51453;47.738;7.420;2023-07-29T05:14:23;3.00;;;2.30;;
64938;SDS011;51453;47.738;7.420;2023-07-29T05:16:49;3.22;;;2.28;;
64938;SDS011;51453;47.738;7.420;2023-07-29T05:19:15;3.28;;;2.25;;
64938;SDS011;51453;47.738;7.420;2023-07-29T05:21:40;2.60;;;2.13;;
64938;SDS011;51453;47.738;7.420;2023-07-29T05:24:06;3.15;;;2.28;;
64938;SDS011;51453;47.738;7.420;2023-07-29T05:26:32;3.15;;;2.08;;
64938;SDS011;51453;47.738;7.420;2023-07-29T05:28:57;4.90;;;2.20;;
64938;SDS011;51453;47.738;7.420;2023-07-29T05:31:23;3.42;;;2.38;;
64938;SDS011;51453;47.738;7.420;2023-07-29T05:33:49;4.75;;;2.40;;
64938;SDS011;51453;47.738;7.420;2023-07-29T05:36:14;2.42;;;2.22;;
64938;SDS011;51453;47.738;7.420;2023-07-29T05:38:40;6.25;;;1.92;;
64938;SDS011;51453;47.738;7.420;2023-07-29T05:41:06;2.95;;;2.08;;
64938;SDS011;51453;47.738;7.420;2023-07-29T05:43:32;4.50;;;2.30;;
64938;SDS011;51453;47.738;7.420;2023-07-29T05:45:57;3.33;;;1.80;;
64938;SDS011;51453;47.738;7.420;2023-07-29T05:48:23;2.20;;;2.00;;
64938;SDS011;51453;47.738;7.420;2023-07-29T05:50:48;2.20;;;1.95;;
64938;SDS011;51453;47.738;7.420;2023-07-29T05:53:15;3.80;;;2.38;;
64938;SDS011;51453;47.738;7.420;2023-07-29T05:55:40;4.13;;;2.60;;
64938;SDS011;51453;47.738;7.420;2023-07-29T05:58:06;3.13;;;2.10;;
64938;SDS011;51453;47.738;7.420;2023-07-29T06:00:32;5.43;;;2.42;;
64938;SDS011;51453;47.738;7.420;2023-07-29T06:02:57;5.00;;;2.17;;
64938;SDS011;51453;47.738;7.420;2023-07-29T06:05:23;2.47;;;2.28;;
64938;SDS011;51453;47.738;7.420;2023-07-29T06:07:49;3.35;;;2.50;;
64938;SDS011;51453;47.738;7.420;2023-07-29T06:10:15;3.60;;;2.40;;
64938;SDS011;51453;47.738;7.420;2023-07-29T06:12:43;3.92;;;2.20;;
64938;SDS011;51453;47.738;7.420;2023-07-29T06:15:09;2.15;;;1.95;;
64938;SDS011;51453;47.738;7.420;2023-07-29T06:17:35;5.20;;;2.20;;
64938;SDS011;51453;47.738;7.420;2023-07-29T06:20:01;3.60;;;2.33;;
64938;SDS011;51453;47.738;7.420;2023-07-29T06:22:28;2.30;;;2.10;;
64938;SDS011;51453;47.738;7.420;2023-07-29T06:24:53;4.03;;;2.08;;
64938;SDS011;51453;47.738;7.420;2023-07-29T06:27:19;3.70;;;2.20;;
64938;SDS011;51453;47.738;7.420;2023-07-29T06:29:44;2.85;;;2.20;;
64938;SDS011;51453;47.738;7.420;2023-07-29T06:32:10;3.67;;;2.15;;
64938;SDS011;51453;47.738;7.420;2023-07-29T06:34:36;3.05;;;2.03;;
64938;SDS011;51453;47.738;7.420;2023-07-29T06:37:01;2.47;;;2.28;;
64938;SDS011;51453;47.738;7.420;2023-07-29T06:39:27;3.55;;;1.90;;
64938;SDS011;51453;47.738;7.420;2023-07-29T06:41:53;2.30;;;1.98;;
64938;SDS011;51453;47.738;7.420;2023-07-29T06:44:18;2.05;;;1.92;;
64938;SDS011;51453;47.738;7.420;2023-07-29T06:46:44;2.83;;;1.67;;
64938;SDS011;51453;47.738;7.420;2023-07-29T06:49:10;2.05;;;1.40;;
64938;SDS011;51453;47.738;7.420;2023-07-29T06:51:35;1.52;;;1.42;;
64938;SDS011;51453;47.738;7.420;2023-07-29T06:54:01;1.40;;;1.30;;
64938;SDS011;51453;47.738;7.420;2023-07-29T06:56:28;1.30;;;1.20;;
64938;SDS011;51453;47.738;7.420;2023-07-29T06:58:53;1.23;;;1.23;;
64938;SDS011;51453;47.738;7.420;2023-07-29T07:01:19;2.70;;;1.30;;
64938;SDS011;51453;47.738;7.420;2023-07-29T07:03:45;1.80;;;1.60;;
64938;SDS011;51453;47.738;7.420;2023-07-29T07:06:10;2.72;;;1.50;;
64938;SDS011;51453;47.738;7.420;2023-07-29T07:08:36;1.52;;;1.42;;
64938;SDS011;51453;47.738;7.420;2023-07-29T07:11:01;1.40;;;1.30;;
64938;SDS011;51453;47.738;7.420;2023-07-29T07:13:27;2.05;;;1.30;;
64938;SDS011;51453;47.738;7.420;2023-07-29T07:15:56;3.28;;;1.20;;
64938;SDS011;51453;47.738;7.420;2023-07-29T07:18:22;1.63;;;1.30;;
64938;SDS011;51453;47.738;7.420;2023-07-29T07:20:51;1.33;;;1.23;;
64938;SDS011;51453;47.738;7.420;2023-07-29T07:23:17;1.15;;;1.05;;
64938;SDS011;51453;47.738;7.420;2023-07-29T07:25:42;1.40;;;1.30;;
64938;SDS011;51453;47.738;7.420;2023-07-29T07:28:08;4.40;;;1.50;;
64938;SDS011;51453;47.738;7.420;2023-07-29T07:30:34;1.42;;;1.20;;
64938;SDS011;51453;47.738;7.420;2023-07-29T07:33:04;2.58;;;1.35;;
64938;SDS011;51453;47.738;7.420;2023-07-29T07:35:29;3.25;;;1.27;;
64938;SDS011;51453;47.738;7.420;2023-07-29T07:37:55;1.30;;;1.20;;
64938;SDS011;51453;47.738;7.420;2023-07-29T07:40:20;1.30;;;1.20;;
64938;SDS011;51453;47.738;7.420;2023-07-29T07:42:46;1.50;;;1.10;;
64938;SDS011;51453;47.738;7.420;2023-07-29T07:45:12;2.00;;;1.30;;
64938;SDS011;51453;47.738;7.420;2023-07-29T07:47:37;1.30;;;1.15;;
64938;SDS011;51453;47.738;7.420;2023-07-29T07:50:03;1.17;;;1.08;;
64938;SDS011;51453;47.738;7.420;2023-07-29T07:52:29;1.25;;;1.13;;
64938;SDS011;51453;47.738;7.420;2023-07-29T07:54:55;1.30;;;1.20;;
64938;SDS011;51453;47.738;7.420;2023-07-29T07:57:23;2.33;;;1.15;;
64938;SDS011;51453;47.738;7.420;2023-07-29T07:59:49;3.33;;;1.25;;
64938;SDS011;51453;47.738;7.420;2023-07-29T08:02:15;3.85;;;1.55;;
64938;SDS011;51453;47.738;7.420;2023-07-29T08:04:41;2.58;;;1.20;;
64938;SDS011;51453;47.738;7.420;2023-07-29T08:07:06;1.98;;;1.38;;
64938;SDS011;51453;47.738;7.420;2023-07-29T08:09:32;1.73;;;1.42;;
64938;SDS011;51453;47.738;7.420;2023-07-29T08:11:58;2.20;;;1.40;;
64938;SDS011;51453;47.738;7.420;2023-07-29T08:14:23;2.15;;;1.30;;
64938;SDS011;51453;47.738;7.420;2023-07-29T08:16:49;1.50;;;1.15;;
64938;SDS011;51453;47.738;7.420;2023-07-29T08:19:15;1.67;;;1.17;;
64938;SDS011;51453;47.738;7.420;2023-07-29T08:21:40;4.13;;;1.50;;
64938;SDS011;51453;47.738;7.420;2023-07-29T08:24:06;1.25;;;1.15;;
64938;SDS011;51453;47.738;7.420;2023-07-29T08:26:32;1.77;;;1.25;;
64938;SDS011;51453;47.738;7.420;2023-07-29T08:28:58;4.40;;;1.48;;
64938;SDS011;51453;47.738;7.420;2023-07-29T08:31:23;1.48;;;1.30;;
64938;SDS011;51453;47.738;7.420;2023-07-29T08:33:49;1.23;;;1.23;;
64938;SDS011;51453;47.738;7.420;2023-07-29T08:36:15;1.17;;;1.02;;
64938;SDS011;51453;47.738;7.420;2023-07-29T08:38:41;1.52;;;1.40;;
64938;SDS011;51453;47.738;7.420;2023-07-29T08:44:30;1.13;;;1.13;;
64938;SDS011;51453;47.738;7.420;2023-07-29T08:46:50;1.73;;;1.52;;
64938;SDS011;51453;47.738;7.420;2023-07-29T08:49:17;2.17;;;1.38;;
64938;SDS011;51453;47.738;7.420;2023-07-29T08:51:47;2.85;;;1.48;;
64938;SDS011;51453;47.738;7.420;2023-07-29T08:54:16;2.33;;;1.40;;
64938;SDS011;51453;47.738;7.420;2023-07-29T08:56:42;2.53;;;1.48;;
64938;SDS011;51453;47.738;7.420;2023-07-29T08:59:09;2.90;;;1.40;;
64938;SDS011;51453;47.738;7.420;2023-07-29T09:01:36;1.63;;;1.52;;
64938;SDS011;51453;47.738;7.420;2023-07-29T09:04:03;4.55;;;1.92;;
64938;SDS011;51453;47.738;7.420;2023-07-29T09:06:29;2.35;;;1.48;;
64938;SDS011;51453;47.738;7.420;2023-07-29T09:08:56;1.85;;;1.60;;
64938;SDS011;51453;47.738;7.420;2023-07-29T09:11:23;1.65;;;1.45;;
64938;SDS011;51453;47.738;7.420;2023-07-29T09:13:49;2.75;;;1.70;;
64938;SDS011;51453;47.738;7.420;2023-07-29T09:16:15;3.45;;;1.65;;
64938;SDS011;51453;47.738;7.420;2023-07-29T09:18:40;3.05;;;1.60;;
64938;SDS011;51453;47.738;7.420;2023-07-29T09:21:06;3.63;;;1.90;;
64938;SDS011;51453;47.738;7.420;2023-07-29T09:23:38;3.35;;;2.00;;
64938;SDS011;51453;47.738;7.420;2023-07-29T09:26:08;1.85;;;1.75;;
64938;SDS011;51453;47.738;7.420;2023-07-29T09:28:34;2.55;;;1.70;;
64938;SDS011;51453;47.738;7.420;2023-07-29T09:31:04;2.03;;;1.80;;
64938;SDS011;51453;47.738;7.420;2023-07-29T09:33:33;2.33;;;2.00;;
64938;SDS011;51453;47.738;7.420;2023-07-29T09:36:08;2.00;;;1.83;;
64938;SDS011;51453;47.738;7.420;2023-07-29T09:38:34;5.13;;;2.30;;
64938;SDS011;51453;47.738;7.420;2023-07-29T09:41:01;2.30;;;2.10;;
64938;SDS011;51453;47.738;7.420;2023-07-29T09:43:30;2.35;;;2.15;;
64938;SDS011;51453;47.738;7.420;2023-07-29T09:46:00;2.80;;;2.40;;
64938;SDS011;51453;47.738;7.420;2023-07-29T09:48:27;4.03;;;2.70;;
64938;SDS011;51453;47.738;7.420;2023-07-29T09:50:55;3.42;;;2.70;;
64938;SDS011;51453;47.738;7.420;2023-07-29T09:53:21;2.60;;;2.00;;
64938;SDS011;51453;47.738;7.420;2023-07-29T09:55:47;3.38;;;1.92;;
64938;SDS011;51453;47.738;7.420;2023-07-29T09:58:25;2.47;;;2.13;;
64938;SDS011;51453;47.738;7.420;2023-07-29T10:00:54;2.13;;;1.90;;
64938;SDS011;51453;47.738;7.420;2023-07-29T10:03:20;1.95;;;1.80;;
64938;SDS011;51453;47.738;7.420;2023-07-29T10:05:47;2.33;;;2.13;;
64938;SDS011;51453;47.738;7.420;2023-07-29T10:08:13;2.20;;;2.00;;
64938;SDS011;51453;47.738;7.420;2023-07-29T10:10:42;5.18;;;2.17;;
64938;SDS011;51453;47.738;7.420;2023-07-29T10:13:08;2.78;;;2.20;;
64938;SDS011;51453;47.738;7.420;2023-07-29T10:15:35;4.10;;;2.20;;
64938;SDS011;51453;47.738;7.420;2023-07-29T10:18:01;3.25;;;2.25;;
64938;SDS011;51453;47.738;7.420;2023-07-29T10:20:28;2.17;;;1.95;;
64938;SDS011;51453;47.738;7.420;2023-07-29T10:22:56;2.60;;;2.10;;
64938;SDS011;51453;47.738;7.420;2023-07-29T10:25:25;3.25;;;2.00;;
64938;SDS011;51453;47.738;7.420;2023-07-29T10:28:06;1.90;;;1.80;;
64938;SDS011;51453;47.738;7.420;2023-07-29T10:30:32;2.10;;;1.90;;
64938;SDS011;51453;47.738;7.420;2023-07-29T10:33:01;2.33;;;2.10;;
64938;SDS011;51453;47.738;7.420;2023-07-29T10:35:29;2.40;;;2.00;;
64938;SDS011;51453;47.738;7.420;2023-07-29T10:37:55;3.25;;;1.98;;
64938;SDS011;51453;47.738;7.420;2023-07-29T10:40:21;2.42;;;1.70;;
64938;SDS011;51453;47.738;7.420;2023-07-29T10:43:06;2.20;;;2.00;;
64938;SDS011;51453;47.738;7.420;2023-07-29T10:45:39;2.30;;;2.08;;
64938;SDS011;51453;47.738;7.420;2023-07-29T10:48:12;3.22;;;2.17;;
64938;SDS011;51453;47.738;7.420;2023-07-29T10:56:29;4.72;;;2.10;;
64938;SDS011;51453;47.738;7.420;2023-07-29T10:58:59;2.25;;;2.00;;
64938;SDS011;51453;47.738;7.420;2023-07-29T11:01:51;2.20;;;2.00;;
64938;SDS011;51453;47.738;7.420;2023-07-29T11:04:21;2.00;;;1.88;;
64938;SDS011;51453;47.738;7.420;2023-07-29T11:09:40;2.25;;;2.05;;
64938;SDS011;51453;47.738;7.420;2023-07-29T11:17:40;2.08;;;1.98;;
64938;SDS011;51453;47.738;7.420;2023-07-29T11:20:11;1.80;;;1.70;;
64938;SDS011;51453;47.738;7.420;2023-07-29T11:22:37;1.65;;;1.55;;
64938;SDS011;51453;47.738;7.420;2023-07-29T11:25:04;2.75;;;1.90;;
64938;SDS011;51453;47.738;7.420;2023-07-29T11:27:34;1.80;;;1.50;;
64938;SDS011;51453;47.738;7.420;2023-07-29T11:30:00;2.72;;;1.88;;
64938;SDS011;51453;47.738;7.420;2023-07-29T11:32:27;1.85;;;1.70;;
64938;SDS011;51453;47.738;7.420;2023-07-29T11:34:52;3.28;;;1.70;;
64938;SDS011;51453;47.738;7.420;2023-07-29T11:37:18;1.80;;;1.60;;
64938;SDS011;51453;47.738;7.420;2023-07-29T11:39:46;1.80;;;1.70;;
64938;SDS011;51453;47.738;7.420;2023-07-29T11:42:12;2.20;;;1.75;;
64938;SDS011;51453;47.738;7.420;2023-07-29T11:44:38;1.52;;;1.42;;
64938;SDS011;51453;47.738;7.420;2023-07-29T11:47:08;1.75;;;1.50;;
64938;SDS011;51453;47.738;7.420;2023-07-29T11:49:35;1.88;;;1.77;;
64938;SDS011;51453;47.738;7.420;2023-07-29T11:52:02;2.05;;;1.60;;
64938;SDS011;51453;47.738;7.420;2023-07-29T11:54:28;2.35;;;1.80;;
64938;SDS011;51453;47.738;7.420;2023-07-29T11:56:54;1.70;;;1.48;;
64938;SDS011;51453;47.738;7.420;2023-07-29T11:59:20;2.50;;;1.90;;
64938;SDS011;51453;47.738;7.420;2023-07-29T12:01:46;1.50;;;1.40;;
64938;SDS011;51453;47.738;7.420;2023-07-29T12:04:12;2.83;;;1.50;;
64938;SDS011;51453;47.738;7.420;2023-07-29T12:06:39;1.73;;;1.63;;
64938;SDS011;51453;47.738;7.420;2023-07-29T12:09:04;2.92;;;1.60;;
64938;SDS011;51453;47.738;7.420;2023-07-29T12:11:30;2.00;;;1.80;;
64938;SDS011;51453;47.738;7.420;2023-07-29T12:13:57;1.90;;;1.70;;
64938;SDS011;51453;47.738;7.420;2023-07-29T12:16:24;1.67;;;1.55;;
64938;SDS011;51453;47.738;7.420;2023-07-29T12:18:50;1.45;;;1.35;;
64938;SDS011;51453;47.738;7.420;2023-07-29T12:21:16;2.28;;;1.75;;
64938;SDS011;51453;47.738;7.420;2023-07-29T12:23:44;2.15;;;1.60;;
64938;SDS011;51453;47.738;7.420;2023-07-29T12:26:09;1.75;;;1.58;;
64938;SDS011;51453;47.738;7.420;2023-07-29T12:28:35;1.60;;;1.50;;
64938;SDS011;51453;47.738;7.420;2023-07-29T12:31:01;1.55;;;1.45;;
64938;SDS011;51453;47.738;7.420;2023-07-29T12:35:56;1.50;;;1.40;;
64938;SDS011;51453;47.738;7.420;2023-07-29T12:38:21;1.45;;;1.35;;
64938;SDS011;51453;47.738;7.420;2023-07-29T12:40:47;1.50;;;1.40;;
64938;SDS011;51453;47.738;7.420;2023-07-29T12:43:13;2.13;;;1.48;;
64938;SDS011;51453;47.738;7.420;2023-07-29T12:45:38;2.30;;;1.50;;
64938;SDS011;51453;47.738;7.420;2023-07-29T12:48:06;1.65;;;1.48;;
64938;SDS011;51453;47.738;7.420;2023-07-29T12:50:32;1.50;;;1.40;;
64938;SDS011;51453;47.738;7.420;2023-07-29T12:52:58;1.70;;;1.50;;
64938;SDS011;51453;47.738;7.420;2023-07-29T12:55:23;1.75;;;1.65;;
64938;SDS011;51453;47.738;7.420;2023-07-29T12:57:49;3.65;;;1.60;;
64938;SDS011;51453;47.738;7.420;2023-07-29T13:00:15;1.65;;;1.45;;
64938;SDS011;51453;47.738;7.420;2023-07-29T13:02:41;1.80;;;1.70;;
64938;SDS011;51453;47.738;7.420;2023-07-29T13:05:08;2.38;;;1.50;;
64938;SDS011;51453;47.738;7.420;2023-07-29T13:07:38;1.77;;;1.48;;
64938;SDS011;51453;47.738;7.420;2023-07-29T13:10:04;1.85;;;1.65;;
64938;SDS011;51453;47.738;7.420;2023-07-29T13:12:30;3.03;;;1.48;;
64938;SDS011;51453;47.738;7.420;2023-07-29T13:14:56;1.98;;;1.70;;
64938;SDS011;51453;47.738;7.420;2023-07-29T13:17:22;2.00;;;1.90;;
64938;SDS011;51453;47.738;7.420;2023-07-29T13:19:48;1.67;;;1.58;;
64938;SDS011;51453;47.738;7.420;2023-07-29T13:22:14;2.05;;;1.40;;
64938;SDS011;51453;47.738;7.420;2023-07-29T13:24:39;1.50;;;1.40;;
64938;SDS011;51453;47.738;7.420;2023-07-29T13:27:05;1.40;;;1.30;;
64938;SDS011;51453;47.738;7.420;2023-07-29T13:29:31;1.27;;;1.20;;
64938;SDS011;51453;47.738;7.420;2023-07-29T13:31:56;1.40;;;1.30;;
64938;SDS011;51453;47.738;7.420;2023-07-29T13:34:22;2.03;;;1.50;;
64938;SDS011;51453;47.738;7.420;2023-07-29T13:36:47;1.75;;;1.30;;
64938;SDS011;51453;47.738;7.420;2023-07-29T13:39:13;2.20;;;1.55;;
64938;SDS011;51453;47.738;7.420;2023-07-29T13:41:39;1.88;;;1.70;;
64938;SDS011;51453;47.738;7.420;2023-07-29T13:44:04;2.55;;;1.80;;
64938;SDS011;51453;47.738;7.420;2023-07-29T13:46:30;1.88;;;1.77;;
64938;SDS011;51453;47.738;7.420;2023-07-29T13:48:55;1.77;;;1.63;;
64938;SDS011;51453;47.738;7.420;2023-07-29T13:51:21;1.90;;;1.80;;
64938;SDS011;51453;47.738;7.420;2023-07-29T13:53:47;1.90;;;1.70;;
64938;SDS011;51453;47.738;7.420;2023-07-29T13:56:12;1.85;;;1.75;;
64938;SDS011;51453;47.738;7.420;2023-07-29T13:58:38;4.43;;;2.25;;
64938;SDS011;51453;47.738;7.420;2023-07-29T14:01:03;2.33;;;1.90;;
64938;SDS011;51453;47.738;7.420;2023-07-29T14:03:29;3.50;;;1.55;;
64938;SDS011;51453;47.738;7.420;2023-07-29T14:05:55;2.28;;;2.08;;
64938;SDS011;51453;47.738;7.420;2023-07-29T14:08:20;2.13;;;1.80;;
64938;SDS011;51453;47.738;7.420;2023-07-29T14:10:48;3.08;;;1.90;;
64938;SDS011;51453;47.738;7.420;2023-07-29T14:13:16;2.03;;;1.80;;
64938;SDS011;51453;47.738;7.420;2023-07-29T14:15:42;2.70;;;1.88;;
64938;SDS011;51453;47.738;7.420;2023-07-29T14:18:07;2.90;;;1.90;;
64938;SDS011;51453;47.738;7.420;2023-07-29T14:20:33;2.28;;;1.90;;
64938;SDS011;51453;47.738;7.420;2023-07-29T14:22:59;2.47;;;1.80;;
64938;SDS011;51453;47.738;7.420;2023-07-29T14:25:24;2.80;;;1.80;;
64938;SDS011;51453;47.738;7.420;2023-07-29T14:27:50;4.60;;;1.80;;
64938;SDS011;51453;47.738;7.420;2023-07-29T14:30:16;1.58;;;1.45;;
64938;SDS011;51453;47.738;7.420;2023-07-29T14:32:41;1.33;;;1.20;;
64938;SDS011;51453;47.738;7.420;2023-07-29T14:35:07;1.60;;;1.50;;
64938;SDS011;51453;47.738;7.420;2023-07-29T14:37:34;1.67;;;1.58;;
64938;SDS011;51453;47.738;7.420;2023-07-29T14:40:00;1.70;;;1.60;;
64938;SDS011;51453;47.738;7.420;2023-07-29T14:42:26;1.50;;;1.40;;
64938;SDS011;51453;47.738;7.420;2023-07-29T14:44:53;1.98;;;1.50;;
64938;SDS011;51453;47.738;7.420;2023-07-29T14:47:19;1.80;;;1.70;;
64938;SDS011;51453;47.738;7.420;2023-07-29T14:49:45;2.78;;;2.10;;
64938;SDS011;51453;47.738;7.420;2023-07-29T14:52:10;2.15;;;1.95;;
64938;SDS011;51453;47.738;7.420;2023-07-29T14:54:36;2.35;;;2.15;;
64938;SDS011;51453;47.738;7.420;2023-07-29T14:57:02;2.28;;;2.08;;
64938;SDS011;51453;47.738;7.420;2023-07-29T14:59:29;3.08;;;1.98;;
64938;SDS011;51453;47.738;7.420;2023-07-29T15:01:55;2.58;;;2.38;;
64938;SDS011;51453;47.738;7.420;2023-07-29T15:04:21;3.90;;;2.72;;
64938;SDS011;51453;47.738;7.420;2023-07-29T15:06:46;5.28;;;2.58;;
64938;SDS011;51453;47.738;7.420;2023-07-29T15:09:12;3.55;;;2.25;;
64938;SDS011;51453;47.738;7.420;2023-07-29T15:11:37;4.05;;;2.80;;
64938;SDS011;51453;47.738;7.420;2023-07-29T15:14:03;3.28;;;2.72;;